createdAt,value
2022-10-18T00:00:17.384Z,100.0
2022-10-18T00:01:16.805Z,100.0
2022-10-18T00:02:17.528Z,100.0
2022-10-18T00:03:17.067Z,100.0
2022-10-18T00:04:16.516Z,100.0
2022-10-18T00:05:16.979Z,100.0
2022-10-18T00:06:16.462Z,100.0
2022-10-18T00:07:16.915Z,100.0
2022-10-18T00:08:17.405Z,100.0
2022-10-18T00:09:16.861Z,100.0
2022-10-18T00:10:17.310Z,100.0
2022-10-18T00:11:16.755Z,100.0
2022-10-18T00:12:17.034Z,100.0
2022-10-18T00:13:16.470Z,100.0
2022-10-18T00:14:16.953Z,100.0
2022-10-18T00:15:17.374Z,100.0
2022-10-18T00:16:16.815Z,100.0
2022-10-18T00:17:17.287Z,100.0
2022-10-18T00:18:16.738Z,100.0
2022-10-18T00:19:17.197Z,100.0
2022-10-18T00:20:16.682Z,100.0
2022-10-18T00:21:17.173Z,100.0
2022-10-18T00:22:16.499Z,100.0
2022-10-18T00:23:16.985Z,100.0
2022-10-18T00:24:16.563Z,100.0
2022-10-18T00:25:16.996Z,100.0
2022-10-18T00:26:16.414Z,100.0
2022-10-18T00:27:16.833Z,100.0
2022-10-18T00:28:17.306Z,100.0
2022-10-18T00:29:16.735Z,100.0
2022-10-18T00:30:17.164Z,100.0
2022-10-18T00:31:16.614Z,100.0
2022-10-18T00:32:17.167Z,100.0
2022-10-18T00:33:16.650Z,100.0
2022-10-18T00:34:17.131Z,100.0
2022-10-18T00:35:16.602Z,100.0
2022-10-18T00:36:17.055Z,100.0
2022-10-18T00:37:16.514Z,100.0
2022-10-18T00:38:16.971Z,100.0
2022-10-18T00:39:17.426Z,100.0
2022-10-18T00:40:16.873Z,100.0
2022-10-18T00:41:17.300Z,100.0
2022-10-18T00:42:16.672Z,100.0
2022-10-18T00:43:17.093Z,100.0
2022-10-18T00:44:16.547Z,100.0
2022-10-18T00:45:16.973Z,100.0
2022-10-18T00:46:17.457Z,100.0
2022-10-18T00:47:16.916Z,100.0
2022-10-18T00:48:17.473Z,100.0
2022-10-18T00:49:16.956Z,100.0
2022-10-18T00:50:17.470Z,100.0
2022-10-18T00:51:16.934Z,100.0
2022-10-18T00:52:17.337Z,100.0
2022-10-18T00:53:16.783Z,100.0
2022-10-18T00:54:17.210Z,100.0
2022-10-18T00:55:16.649Z,100.0
2022-10-18T00:56:17.070Z,100.0
2022-10-18T00:57:16.491Z,100.0
2022-10-18T00:58:16.941Z,100.0
2022-10-18T00:59:17.365Z,100.0
2022-10-18T01:00:16.820Z,100.0
2022-10-18T01:01:17.350Z,100.0
2022-10-18T01:02:16.617Z,100.0
2022-10-18T01:03:17.118Z,100.0
2022-10-18T01:04:16.603Z,100.0
2022-10-18T01:05:17.092Z,100.0
2022-10-18T01:06:16.573Z,100.0
2022-10-18T01:07:17.054Z,100.0
2022-10-18T01:08:16.505Z,100.0
2022-10-18T01:09:16.978Z,100.0
2022-10-18T01:10:16.415Z,100.0
2022-10-18T01:11:16.842Z,100.0
2022-10-18T01:12:17.194Z,100.0
2022-10-18T01:13:16.664Z,100.0
2022-10-18T01:14:17.088Z,100.0
2022-10-18T01:15:16.564Z,100.0
2022-10-18T01:16:17.048Z,100.0
2022-10-18T01:17:16.503Z,100.0
2022-10-18T01:18:16.983Z,100.0
2022-10-18T01:19:16.442Z,100.0
2022-10-18T01:20:16.931Z,100.0
2022-10-18T01:21:17.401Z,100.0
2022-10-18T01:22:16.754Z,100.0
2022-10-18T01:23:17.186Z,100.0
2022-10-18T01:24:16.616Z,100.0
2022-10-18T01:25:17.043Z,100.0
2022-10-18T01:26:16.468Z,100.0
2022-10-18T01:27:16.887Z,100.0
2022-10-18T01:28:17.351Z,100.0
2022-10-18T01:29:16.812Z,100.0
2022-10-18T01:30:17.265Z,100.0
2022-10-18T01:31:16.747Z,100.0
2022-10-18T01:32:17.226Z,100.0
2022-10-18T01:33:16.705Z,100.0
2022-10-18T01:34:17.196Z,100.0
2022-10-18T01:35:16.683Z,100.0
2022-10-18T01:36:17.115Z,100.0
2022-10-18T01:37:16.542Z,100.0
2022-10-18T01:38:16.970Z,100.0
2022-10-18T01:39:17.458Z,100.0
2022-10-18T01:40:16.894Z,100.0
2022-10-18T01:41:17.330Z,100.0
2022-10-18T01:42:16.694Z,100.0
2022-10-18T01:43:17.151Z,100.0
2022-10-18T01:44:16.632Z,100.0
2022-10-18T01:45:17.118Z,100.0
2022-10-18T01:46:16.566Z,100.0
2022-10-18T01:47:17.022Z,100.0
2022-10-18T01:48:16.486Z,100.0
2022-10-18T01:49:16.968Z,100.0
2022-10-18T01:50:17.415Z,100.0
2022-10-18T01:51:16.856Z,100.0
2022-10-18T01:52:17.382Z,100.0
2022-10-18T01:53:16.816Z,100.0
2022-10-18T01:54:17.242Z,100.0
2022-10-18T01:55:16.687Z,100.0
2022-10-18T01:56:17.139Z,100.0
2022-10-18T01:57:16.564Z,100.0
2022-10-18T01:58:17.023Z,100.0
2022-10-18T01:59:16.505Z,100.0
2022-10-18T02:00:16.970Z,100.0
2022-10-18T02:01:17.430Z,100.0
2022-10-18T02:02:16.827Z,100.0
2022-10-18T02:03:17.320Z,100.0
2022-10-18T02:04:16.787Z,100.0
2022-10-18T02:05:17.221Z,100.0
2022-10-18T02:06:16.651Z,100.0
2022-10-18T02:07:17.073Z,100.0
2022-10-18T02:08:23.842Z,100.0
2022-10-18T02:09:16.436Z,100.0
2022-10-18T02:10:16.890Z,100.0
2022-10-18T02:11:17.334Z,100.0
2022-10-18T02:12:16.704Z,100.0
2022-10-18T02:13:17.174Z,100.0
2022-10-18T02:14:16.656Z,100.0
2022-10-18T02:15:17.134Z,100.0
2022-10-18T02:16:16.621Z,100.0
2022-10-18T02:17:17.104Z,100.0
2022-10-18T02:18:16.578Z,100.0
2022-10-18T02:19:17.180Z,100.0
2022-10-18T02:20:16.635Z,100.0
2022-10-18T02:21:17.109Z,100.0
2022-10-18T02:22:16.432Z,100.0
2022-10-18T02:23:16.871Z,100.0
2022-10-18T02:24:17.299Z,100.0
2022-10-18T02:25:16.717Z,100.0
2022-10-18T02:26:17.180Z,100.0
2022-10-18T02:27:16.635Z,100.0
2022-10-18T02:28:17.187Z,100.0
2022-10-18T02:29:16.703Z,100.0
2022-10-18T02:30:17.194Z,100.0
2022-10-18T02:31:16.667Z,100.0
2022-10-18T02:32:17.123Z,100.0
2022-10-18T02:33:16.578Z,100.0
2022-10-18T02:34:17.025Z,100.0
2022-10-18T02:35:16.445Z,100.0
2022-10-18T02:36:16.906Z,100.0
2022-10-18T02:37:17.456Z,100.0
2022-10-18T02:38:16.925Z,100.0
2022-10-18T02:39:17.361Z,100.0
2022-10-18T02:40:16.784Z,100.0
2022-10-18T02:41:17.249Z,100.0
2022-10-18T02:42:16.563Z,100.0
2022-10-18T02:43:17.028Z,100.0
2022-10-18T02:44:16.516Z,100.0
2022-10-18T02:45:17.004Z,100.0
2022-10-18T02:46:16.568Z,100.0
2022-10-18T02:47:17.067Z,100.0
2022-10-18T02:48:16.502Z,100.0
2022-10-18T02:49:16.931Z,100.0
2022-10-18T02:50:17.372Z,100.0
2022-10-18T02:51:16.817Z,100.0
2022-10-18T02:52:17.318Z,100.0
2022-10-18T02:53:16.734Z,100.0
2022-10-18T02:54:17.181Z,100.0
2022-10-18T02:55:16.708Z,100.0
2022-10-18T02:56:17.199Z,100.0
2022-10-18T02:57:16.680Z,100.0
2022-10-18T02:58:17.159Z,100.0
2022-10-18T02:59:16.627Z,100.0
2022-10-18T03:00:17.100Z,100.0
2022-10-18T03:01:16.638Z,100.0
2022-10-18T03:02:16.896Z,100.0
2022-10-18T03:03:17.351Z,100.0
2022-10-18T03:04:16.937Z,100.0
2022-10-18T03:05:17.389Z,100.0
2022-10-18T03:06:16.856Z,100.0
2022-10-18T03:07:17.288Z,100.0
2022-10-18T03:08:16.709Z,100.0
2022-10-18T03:09:17.150Z,100.0
2022-10-18T03:10:16.607Z,100.0
2022-10-18T03:11:17.092Z,100.0
2022-10-18T03:12:17.400Z,100.0
2022-10-18T03:13:16.994Z,100.0
2022-10-18T03:14:16.469Z,100.0
2022-10-18T03:15:16.956Z,100.0
2022-10-18T03:16:17.436Z,100.0
2022-10-18T03:17:16.891Z,100.0
2022-10-18T03:18:17.370Z,100.0
2022-10-18T03:19:16.801Z,100.0
2022-10-18T03:20:17.231Z,100.0
2022-10-18T03:21:16.675Z,100.0
2022-10-18T03:22:17.307Z,100.0
2022-10-18T03:23:16.766Z,100.0
2022-10-18T03:24:17.207Z,100.0
2022-10-18T03:25:16.689Z,100.0
2022-10-18T03:26:17.167Z,100.0
2022-10-18T03:27:16.615Z,100.0
2022-10-18T03:28:17.066Z,100.0
2022-10-18T03:29:16.517Z,100.0
2022-10-18T03:30:17.004Z,100.0
2022-10-18T03:31:16.478Z,100.0
2022-10-18T03:32:16.749Z,100.0
2022-10-18T03:33:17.167Z,100.0
2022-10-18T03:34:16.592Z,100.0
2022-10-18T03:35:17.033Z,100.0
2022-10-18T03:36:16.456Z,100.0
2022-10-18T03:37:16.896Z,100.0
2022-10-18T03:38:17.341Z,100.0
2022-10-18T03:39:16.803Z,100.0
2022-10-18T03:40:17.270Z,100.0
2022-10-18T03:41:16.722Z,100.0
2022-10-18T03:42:17.105Z,100.0
2022-10-18T03:43:16.601Z,100.0
2022-10-18T03:44:17.095Z,100.0
2022-10-18T03:45:16.583Z,100.0
2022-10-18T03:46:17.015Z,100.0
2022-10-18T03:47:16.437Z,100.0
2022-10-18T03:48:16.867Z,100.0
2022-10-18T03:49:17.329Z,100.0
2022-10-18T03:50:16.754Z,100.0
2022-10-18T03:51:17.178Z,100.0
2022-10-18T03:52:16.547Z,100.0
2022-10-18T03:53:17.018Z,100.0
2022-10-18T03:54:16.500Z,100.0
2022-10-18T03:55:16.954Z,100.0
2022-10-18T03:56:17.433Z,100.0
2022-10-18T03:57:16.943Z,100.0
2022-10-18T03:58:17.458Z,100.0
2022-10-18T03:59:16.921Z,100.0
2022-10-18T04:00:17.400Z,100.0
2022-10-18T04:01:16.974Z,100.0
2022-10-18T04:02:17.315Z,100.0
2022-10-18T04:03:16.762Z,100.0
2022-10-18T04:04:17.243Z,100.0
2022-10-18T04:05:16.683Z,100.0
2022-10-18T04:06:17.130Z,100.0
2022-10-18T04:07:16.573Z,100.0
2022-10-18T04:08:17.057Z,100.0
2022-10-18T04:09:16.567Z,100.0
2022-10-18T04:10:17.091Z,100.0
2022-10-18T04:11:16.547Z,100.0
2022-10-18T04:12:16.883Z,100.0
2022-10-18T04:13:17.433Z,100.0
2022-10-18T04:14:16.931Z,100.0
2022-10-18T04:15:17.397Z,100.0
2022-10-18T04:16:16.853Z,100.0
2022-10-18T04:17:17.283Z,100.0
2022-10-18T04:18:16.703Z,100.0
2022-10-18T04:19:17.152Z,100.0
2022-10-18T04:20:16.616Z,100.0
2022-10-18T04:21:17.034Z,100.0
2022-10-18T04:22:17.463Z,100.0
2022-10-18T04:23:16.936Z,100.0
2022-10-18T04:24:17.407Z,100.0
2022-10-18T04:25:16.863Z,100.0
2022-10-18T04:26:17.323Z,100.0
2022-10-18T04:27:16.803Z,100.0
2022-10-18T04:28:17.267Z,100.0
2022-10-18T04:29:16.696Z,100.0
2022-10-18T04:30:17.127Z,100.0
2022-10-18T04:31:16.554Z,100.0
2022-10-18T04:32:17.162Z,100.0
2022-10-18T04:33:16.622Z,100.0
2022-10-18T04:34:17.053Z,100.0
2022-10-18T04:35:16.492Z,100.0
2022-10-18T04:36:17.001Z,100.0
2022-10-18T04:37:16.451Z,100.0
2022-10-18T04:38:16.928Z,100.0
2022-10-18T04:39:17.405Z,100.0
2022-10-18T04:40:16.908Z,100.0
2022-10-18T04:41:17.396Z,100.0
2022-10-18T04:42:16.919Z,100.0
2022-10-18T04:43:17.428Z,100.0
2022-10-18T04:44:16.871Z,100.0
2022-10-18T04:45:17.298Z,100.0
2022-10-18T04:46:16.736Z,100.0
2022-10-18T04:47:17.191Z,100.0
2022-10-18T04:48:16.614Z,100.0
2022-10-18T04:49:17.066Z,100.0
2022-10-18T04:50:16.491Z,100.0
2022-10-18T04:51:16.984Z,100.0
2022-10-18T04:52:16.976Z,100.0
2022-10-18T04:53:16.546Z,100.0
2022-10-18T04:54:17.017Z,100.0
2022-10-18T04:55:16.487Z,100.0
2022-10-18T04:56:16.966Z,100.0
2022-10-18T04:57:17.444Z,99.9
2022-10-18T04:58:16.881Z,99.9
2022-10-18T04:59:17.325Z,99.9
2022-10-18T05:00:16.747Z,100.0
2022-10-18T05:01:17.329Z,100.0
2022-10-18T05:02:16.837Z,100.0
2022-10-18T05:03:17.301Z,99.9
2022-10-18T05:04:16.774Z,99.9
2022-10-18T05:05:17.190Z,99.9
2022-10-18T05:06:16.680Z,99.9
2022-10-18T05:07:17.165Z,100.0
2022-10-18T05:08:16.632Z,99.9
2022-10-18T05:09:17.122Z,99.9
2022-10-18T05:10:16.589Z,99.9
2022-10-18T05:11:17.056Z,99.9
2022-10-18T05:12:16.710Z,99.9
2022-10-18T05:13:17.135Z,99.9
2022-10-18T05:14:16.590Z,99.8
2022-10-18T05:15:17.016Z,99.8
2022-10-18T05:16:16.451Z,99.8
2022-10-18T05:17:16.894Z,99.8
2022-10-18T05:18:17.367Z,99.8
2022-10-18T05:19:16.827Z,99.8
2022-10-18T05:20:17.310Z,99.9
2022-10-18T05:21:16.772Z,100.0
2022-10-18T05:22:16.754Z,100.0
2022-10-18T05:23:17.224Z,100.0
2022-10-18T05:24:16.689Z,100.0
2022-10-18T05:25:17.147Z,100.0
2022-10-18T05:26:16.653Z,100.0
2022-10-18T05:27:17.134Z,100.0
2022-10-18T05:28:39.461Z,100.0
2022-10-18T05:29:17.459Z,100.0
2022-10-18T05:30:16.952Z,100.0
2022-10-18T05:31:17.375Z,100.0
2022-10-18T05:32:17.261Z,100.0
2022-10-18T05:33:16.689Z,100.0
2022-10-18T05:34:17.113Z,100.0
2022-10-18T05:35:16.592Z,100.0
2022-10-18T05:36:17.068Z,100.0
2022-10-18T05:37:16.524Z,100.0
2022-10-18T05:38:16.995Z,100.0
2022-10-18T05:39:16.435Z,100.0
2022-10-18T05:40:16.946Z,100.0
2022-10-18T05:41:17.419Z,100.0
2022-10-18T05:42:16.903Z,100.0
2022-10-18T05:43:17.364Z,100.0
2022-10-18T05:44:16.830Z,100.0
2022-10-18T05:45:17.251Z,100.0
2022-10-18T05:46:16.710Z,100.0
2022-10-18T05:47:17.139Z,100.0
2022-10-18T05:48:16.561Z,100.0
2022-10-18T05:49:17.027Z,100.0
2022-10-18T05:50:16.502Z,100.0
2022-10-18T05:51:16.971Z,100.0
2022-10-18T05:52:17.296Z,100.0
2022-10-18T05:53:36.525Z,100.0
2022-10-18T05:54:17.292Z,100.0
2022-10-18T05:55:16.780Z,100.0
2022-10-18T05:56:17.236Z,100.0
2022-10-18T05:57:16.688Z,100.0
2022-10-18T05:58:17.136Z,100.0
2022-10-18T05:59:16.580Z,100.0
2022-10-18T06:00:17.011Z,100.0
2022-10-18T06:01:16.439Z,100.0
2022-10-18T06:02:16.899Z,100.0
2022-10-18T06:03:17.453Z,100.0
2022-10-18T06:04:16.975Z,100.0
2022-10-18T06:05:16.434Z,100.0
2022-10-18T06:06:16.903Z,100.0
2022-10-18T06:07:17.373Z,100.0
2022-10-18T06:08:16.850Z,100.0
2022-10-18T06:09:17.281Z,100.0
2022-10-18T06:10:16.711Z,100.0
2022-10-18T06:11:17.191Z,100.0
2022-10-18T06:12:16.782Z,100.0
2022-10-18T06:13:17.203Z,100.0
2022-10-18T06:14:16.653Z,99.9
2022-10-18T06:15:17.096Z,99.9
2022-10-18T06:16:16.840Z,99.9
2022-10-18T06:17:17.369Z,99.8
2022-10-18T06:18:16.830Z,99.9
2022-10-18T06:19:17.327Z,99.9
2022-10-18T06:20:16.814Z,99.9
2022-10-18T06:21:17.309Z,99.9
2022-10-18T06:22:17.140Z,99.8
2022-10-18T06:23:16.614Z,99.8
2022-10-18T06:24:17.085Z,99.8
2022-10-18T06:25:16.556Z,99.8
2022-10-18T06:26:17.004Z,99.8
2022-10-18T06:27:16.431Z,99.8
2022-10-18T06:28:16.860Z,99.8
2022-10-18T06:29:17.283Z,99.8
2022-10-18T06:30:16.742Z,99.8
2022-10-18T06:31:17.221Z,99.8
2022-10-18T06:32:17.018Z,99.8
2022-10-18T06:33:16.498Z,99.8
2022-10-18T06:34:16.972Z,99.8
2022-10-18T06:35:17.471Z,99.8
2022-10-18T06:36:16.931Z,99.8
2022-10-18T06:37:17.398Z,99.8
2022-10-18T06:38:16.950Z,99.8
2022-10-18T06:39:17.376Z,99.9
2022-10-18T06:40:16.794Z,99.9
2022-10-18T06:41:17.232Z,100.0
2022-10-18T06:42:21.918Z,100.0
2022-10-18T06:43:21.683Z,100.0
2022-10-18T06:44:17.203Z,100.0
2022-10-18T06:45:16.626Z,100.0
2022-10-18T06:46:17.197Z,100.0
2022-10-18T06:47:16.686Z,100.0
2022-10-18T06:48:17.358Z,99.8
2022-10-18T06:49:19.512Z,99.8
2022-10-18T06:50:17.010Z,99.8
2022-10-18T06:51:16.471Z,99.7
2022-10-18T06:52:16.477Z,99.8
2022-10-18T06:53:16.923Z,99.8
2022-10-18T06:54:19.168Z,99.7
2022-10-18T06:55:16.689Z,99.8
2022-10-18T06:56:17.138Z,99.8
2022-10-18T06:57:16.594Z,99.8
2022-10-18T06:58:17.017Z,99.9
2022-10-18T06:59:16.488Z,99.9
2022-10-18T07:00:16.974Z,99.8
2022-10-18T07:01:17.576Z,99.8
2022-10-18T07:02:17.291Z,99.8
2022-10-18T07:03:16.747Z,99.8
2022-10-18T07:04:17.211Z,99.8
2022-10-18T07:05:16.685Z,99.8
2022-10-18T07:06:17.165Z,99.8
2022-10-18T07:07:16.596Z,99.7
2022-10-18T07:08:17.017Z,99.7
2022-10-18T07:09:16.470Z,99.7
2022-10-18T07:10:16.893Z,99.7
2022-10-18T07:11:17.334Z,99.7
2022-10-18T07:12:16.771Z,99.7
2022-10-18T07:13:32.959Z,99.7
2022-10-18T07:14:16.827Z,99.7
2022-10-18T07:15:17.275Z,99.7
2022-10-18T07:16:18.922Z,99.6
2022-10-18T07:17:17.437Z,99.6
2022-10-18T07:18:16.960Z,99.5
2022-10-18T07:19:17.476Z,99.5
2022-10-18T07:20:16.988Z,99.5
2022-10-18T07:21:16.466Z,99.5
2022-10-18T07:22:16.952Z,99.5
2022-10-18T07:23:17.450Z,99.5
2022-10-18T07:24:16.888Z,99.3
2022-10-18T07:25:17.361Z,99.3
2022-10-18T07:26:16.791Z,99.3
2022-10-18T07:27:17.235Z,99.2
2022-10-18T07:28:16.705Z,99.0
2022-10-18T07:29:17.140Z,99.0
2022-10-18T07:30:16.615Z,98.9
2022-10-18T07:31:17.092Z,98.8
2022-10-18T07:32:16.773Z,98.8
2022-10-18T07:33:17.259Z,98.8
2022-10-18T07:34:16.737Z,98.8
2022-10-18T07:35:17.237Z,98.8
2022-10-18T07:36:16.732Z,98.8
2022-10-18T07:37:17.265Z,98.8
2022-10-18T07:38:16.712Z,98.8
2022-10-18T07:39:17.143Z,98.9
2022-10-18T07:40:16.581Z,99.0
2022-10-18T07:41:17.026Z,99.0
2022-10-18T07:42:16.911Z,99.0
2022-10-18T07:43:17.402Z,99.0
2022-10-18T07:44:16.835Z,99.0
2022-10-18T07:45:17.307Z,99.0
2022-10-18T07:46:16.825Z,98.9
2022-10-18T07:47:17.300Z,98.8
2022-10-18T07:48:16.788Z,98.8
2022-10-18T07:49:17.286Z,98.8
2022-10-18T07:50:16.763Z,98.9
2022-10-18T07:51:17.230Z,98.9
2022-10-18T07:52:17.130Z,98.8
2022-10-18T07:53:16.623Z,98.8
2022-10-18T07:54:17.080Z,98.8
2022-10-18T07:55:16.539Z,98.8
2022-10-18T07:56:17.086Z,98.8
2022-10-18T07:57:16.503Z,98.7
2022-10-18T07:58:16.937Z,98.7
2022-10-18T07:59:17.381Z,98.8
2022-10-18T08:00:16.853Z,98.7
2022-10-18T08:01:17.472Z,98.6
2022-10-18T08:02:16.812Z,98.7
2022-10-18T08:03:17.334Z,98.5
2022-10-18T08:04:16.868Z,98.4
2022-10-18T08:05:17.331Z,98.1
2022-10-18T08:06:16.807Z,98.0
2022-10-18T08:07:17.246Z,97.7
2022-10-18T08:08:16.672Z,97.6
2022-10-18T08:09:17.093Z,97.5
2022-10-18T08:10:16.566Z,97.1
2022-10-18T08:11:17.021Z,96.8
2022-10-18T08:12:17.057Z,95.9
2022-10-18T08:13:16.492Z,94.8
2022-10-18T08:14:16.965Z,94.7
2022-10-18T08:15:17.424Z,94.3
2022-10-18T08:16:16.884Z,93.6
2022-10-18T08:17:17.362Z,93.7
2022-10-18T08:18:16.822Z,93.8
2022-10-18T08:19:17.302Z,94.0
2022-10-18T08:20:30.671Z,93.7
2022-10-18T08:21:16.607Z,93.5
2022-10-18T08:22:16.800Z,93.8
2022-10-18T08:23:17.219Z,93.6
2022-10-18T08:24:16.668Z,93.4
2022-10-18T08:25:17.122Z,93.2
2022-10-18T08:26:16.565Z,92.6
2022-10-18T08:27:16.986Z,91.7
2022-10-18T08:28:16.439Z,90.8
2022-10-18T08:29:28.075Z,90.2
2022-10-18T08:30:16.842Z,89.4
2022-10-18T08:31:17.307Z,89.7
2022-10-18T08:32:16.979Z,90.0
2022-10-18T08:33:16.482Z,89.5
2022-10-18T08:34:20.150Z,88.6
2022-10-18T08:35:16.621Z,88.0
2022-10-18T08:36:17.084Z,87.8
2022-10-18T08:37:16.526Z,86.7
2022-10-18T08:38:19.016Z,86.5
2022-10-18T08:39:16.469Z,86.2
2022-10-18T08:40:16.934Z,86.3
2022-10-18T08:41:17.407Z,86.3
2022-10-18T08:42:17.157Z,87.7
2022-10-18T08:43:21.965Z,87.4
2022-10-18T08:44:16.504Z,88.0
2022-10-18T08:45:37.640Z,86.3
2022-10-18T08:46:16.525Z,85.9
2022-10-18T08:47:16.996Z,85.2
2022-10-18T08:48:16.512Z,84.7
2022-10-18T08:49:17.017Z,84.8
2022-10-18T08:50:16.449Z,84.7
2022-10-18T08:51:16.912Z,85.2
2022-10-18T08:52:16.583Z,84.7
2022-10-18T08:53:17.003Z,84.2
2022-10-18T08:54:16.457Z,84.0
2022-10-18T08:55:16.895Z,84.2
2022-10-18T08:56:17.378Z,84.0
2022-10-18T08:57:16.892Z,84.7
2022-10-18T08:58:17.410Z,85.0
2022-10-18T08:59:16.886Z,84.4
2022-10-18T09:00:17.431Z,83.8
2022-10-18T09:01:16.927Z,84.1
2022-10-18T09:02:16.970Z,83.7
2022-10-18T09:03:16.719Z,82.7
2022-10-18T09:04:17.247Z,82.1
2022-10-18T09:05:16.701Z,81.8
2022-10-18T09:06:22.771Z,81.8
2022-10-18T09:07:17.078Z,82.1
2022-10-18T09:08:16.519Z,82.2
2022-10-18T09:09:16.980Z,82.9
2022-10-18T09:10:16.418Z,82.9
2022-10-18T09:11:16.881Z,82.4
2022-10-18T09:12:16.579Z,83.3
2022-10-18T09:13:17.159Z,83.0
2022-10-18T09:14:16.623Z,82.2
2022-10-18T09:15:17.089Z,81.3
2022-10-18T09:16:16.560Z,79.5
2022-10-18T09:17:17.033Z,79.0
2022-10-18T09:18:16.505Z,79.8
2022-10-18T09:19:16.942Z,81.8
2022-10-18T09:20:17.484Z,82.1
2022-10-18T09:21:16.925Z,82.0
2022-10-18T09:22:16.447Z,81.8
2022-10-18T09:23:16.878Z,81.1
2022-10-18T09:24:17.307Z,80.5
2022-10-18T09:25:16.730Z,80.6
2022-10-18T09:26:17.210Z,80.6
2022-10-18T09:27:16.691Z,81.1
2022-10-18T09:28:17.144Z,81.0
2022-10-18T09:29:16.913Z,82.2
2022-10-18T09:30:16.470Z,81.8
2022-10-18T09:31:16.932Z,81.7
2022-10-18T09:32:16.792Z,81.3
2022-10-18T09:33:17.267Z,80.3
2022-10-18T09:34:16.692Z,80.2
2022-10-18T09:35:17.123Z,79.9
2022-10-18T09:36:16.557Z,80.3
2022-10-18T09:37:17.003Z,80.5
2022-10-18T09:38:16.509Z,80.7
2022-10-18T09:39:16.974Z,80.9
2022-10-18T09:40:19.334Z,81.8
2022-10-18T09:41:16.881Z,82.3
2022-10-18T09:42:16.620Z,82.1
2022-10-18T09:43:17.095Z,81.0
2022-10-18T09:44:16.578Z,80.3
2022-10-18T09:45:17.052Z,79.8
2022-10-18T09:46:16.512Z,80.8
2022-10-18T09:47:17.395Z,80.6
2022-10-18T09:48:16.850Z,80.3
2022-10-18T09:49:17.287Z,80.2
2022-10-18T09:50:16.717Z,80.4
2022-10-18T09:51:17.141Z,80.0
2022-10-18T09:52:17.175Z,80.2
2022-10-18T09:53:16.604Z,80.0
2022-10-18T09:54:17.034Z,80.1
2022-10-18T09:55:16.507Z,80.3
2022-10-18T09:56:17.002Z,80.5
2022-10-18T09:57:16.483Z,80.0
2022-10-18T09:58:16.930Z,79.8
2022-10-18T09:59:17.389Z,80.5
2022-10-18T10:00:16.881Z,80.9
2022-10-18T10:01:17.360Z,81.2
2022-10-18T10:02:17.242Z,81.8
2022-10-18T10:03:16.721Z,80.8
2022-10-18T10:04:17.190Z,81.9
2022-10-18T10:05:16.630Z,80.9
2022-10-18T10:06:17.067Z,81.0
2022-10-18T10:07:16.495Z,81.3
2022-10-18T10:08:16.919Z,81.9
2022-10-18T10:09:17.346Z,82.0
2022-10-18T10:10:16.835Z,82.3
2022-10-18T10:11:17.318Z,81.2
2022-10-18T10:12:17.109Z,81.6
2022-10-18T10:13:16.599Z,82.2
2022-10-18T10:15:16.540Z,82.0
2022-10-18T10:16:17.022Z,81.4
2022-10-18T10:17:16.459Z,82.0
2022-10-18T10:18:16.896Z,82.2
2022-10-18T10:19:17.329Z,83.3
2022-10-18T10:20:16.769Z,82.8
2022-10-18T10:21:17.197Z,81.8
2022-10-18T10:22:16.970Z,81.7
2022-10-18T10:24:16.909Z,82.8
2022-10-18T10:25:17.410Z,81.8
2022-10-18T10:26:16.888Z,81.8
2022-10-18T10:27:17.381Z,82.2
2022-10-18T10:28:16.841Z,82.3
2022-10-18T10:29:33.457Z,83.5
2022-10-18T10:30:17.339Z,82.5
2022-10-18T10:31:16.781Z,82.0
2022-10-18T10:32:16.661Z,82.3
2022-10-18T10:33:17.113Z,82.3
2022-10-18T10:34:16.560Z,82.3
2022-10-18T10:35:35.395Z,82.8
2022-10-18T10:36:16.514Z,82.8
2022-10-18T10:37:16.941Z,82.5
2022-10-18T10:38:17.425Z,82.7
2022-10-18T10:39:16.889Z,81.3
2022-10-18T10:40:21.177Z,81.3
2022-10-18T10:41:16.622Z,82.6
2022-10-18T10:42:16.702Z,81.9
2022-10-18T10:43:37.936Z,81.8
2022-10-18T10:44:16.717Z,81.8
2022-10-18T10:45:17.171Z,81.9
2022-10-18T10:46:16.611Z,81.8
2022-10-18T10:47:17.048Z,82.1
2022-10-18T10:48:16.482Z,82.7
2022-10-18T10:49:40.005Z,82.8
2022-10-18T10:50:16.746Z,82.9
2022-10-18T10:51:17.185Z,82.6
2022-10-18T10:52:28.261Z,82.2
2022-10-18T10:53:17.048Z,82.6
2022-10-18T10:54:16.514Z,82.4
2022-10-18T10:55:35.101Z,82.8
2022-10-18T10:56:16.843Z,83.2
2022-10-18T10:57:17.297Z,83.6
2022-10-18T10:58:16.746Z,83.2
2022-10-18T10:59:17.223Z,83.0
2022-10-18T11:00:16.701Z,82.7
2022-10-18T11:01:17.177Z,83.2
2022-10-18T11:02:16.652Z,83.0
2022-10-18T11:03:29.947Z,83.1
2022-10-18T11:04:16.768Z,83.5
2022-10-18T11:05:17.222Z,83.4
2022-10-18T11:06:16.638Z,83.8
2022-10-18T11:07:17.071Z,84.1
2022-10-18T11:08:23.894Z,84.2
2022-10-18T11:09:16.483Z,84.3
2022-10-18T11:10:16.940Z,85.2
2022-10-18T11:11:22.264Z,86.3
2022-10-18T11:12:17.124Z,86.8
2022-10-18T11:13:16.597Z,87.3
2022-10-18T11:14:27.029Z,88.2
2022-10-18T11:15:16.671Z,88.4
2022-10-18T11:16:17.125Z,89.0
2022-10-18T11:17:16.544Z,89.8
2022-10-18T11:18:17.015Z,90.3
2022-10-18T11:19:16.452Z,91.7
2022-10-18T11:20:16.891Z,92.3
2022-10-18T11:21:17.345Z,93.4
2022-10-18T11:22:17.097Z,94.0
2022-10-18T11:23:16.574Z,94.4
2022-10-18T11:24:17.047Z,94.8
2022-10-18T11:25:16.520Z,95.3
2022-10-18T11:26:16.988Z,95.7
2022-10-18T11:27:16.470Z,95.8
2022-10-18T11:28:16.961Z,96.5
2022-10-18T11:29:17.431Z,96.8
2022-10-18T11:30:16.856Z,96.9
2022-10-18T11:31:17.293Z,96.8
2022-10-18T11:32:17.297Z,97.0
2022-10-18T11:33:16.740Z,96.9
2022-10-18T11:34:17.183Z,97.3
2022-10-18T11:35:16.691Z,97.2
2022-10-18T11:36:17.217Z,97.7
2022-10-18T11:37:31.205Z,97.0
2022-10-18T11:38:16.806Z,96.9
2022-10-18T11:39:17.288Z,97.0
2022-10-18T11:40:16.770Z,97.2
2022-10-18T11:41:17.248Z,97.5
2022-10-18T11:42:16.909Z,97.2
2022-10-18T11:43:17.420Z,97.3
2022-10-18T11:44:16.888Z,97.4
2022-10-18T11:45:17.468Z,97.4
2022-10-18T11:46:17.003Z,97.0
2022-10-18T11:47:16.447Z,97.2
2022-10-18T11:48:16.909Z,97.2
2022-10-18T11:49:17.350Z,97.1
2022-10-18T11:50:16.771Z,97.2
2022-10-18T11:51:17.210Z,97.4
2022-10-18T11:52:16.926Z,97.4
2022-10-18T11:53:17.532Z,97.6
2022-10-18T11:54:17.057Z,97.3
2022-10-18T11:55:16.546Z,97.4
2022-10-18T11:56:17.076Z,97.5
2022-10-18T11:57:16.561Z,97.5
2022-10-18T11:58:17.028Z,97.5
2022-10-18T11:59:16.449Z,97.7
2022-10-18T12:00:17.156Z,97.8
2022-10-18T12:01:16.626Z,97.9
2022-10-18T12:02:17.475Z,97.8
2022-10-18T12:03:16.926Z,97.7
2022-10-18T12:04:17.353Z,97.6
2022-10-18T12:05:25.233Z,97.2
2022-10-18T12:06:16.788Z,97.2
2022-10-18T12:07:26.877Z,97.2
2022-10-18T12:08:17.399Z,97.1
2022-10-18T12:09:17.023Z,97.2
2022-10-18T12:10:32.844Z,97.2
2022-10-18T12:11:16.971Z,97.2
2022-10-18T12:12:16.593Z,97.3
2022-10-18T12:13:17.054Z,96.9
2022-10-18T12:14:16.489Z,97.2
2022-10-18T12:15:16.913Z,97.2
2022-10-18T12:16:17.370Z,97.5
2022-10-18T12:17:42.054Z,97.5
2022-10-18T12:18:17.287Z,97.6
2022-10-18T12:19:16.756Z,97.6
2022-10-18T12:20:17.231Z,97.5
2022-10-18T12:21:16.781Z,97.3
2022-10-18T12:22:17.052Z,97.3
2022-10-18T12:23:16.656Z,97.2
2022-10-18T12:24:17.123Z,97.1
2022-10-18T12:25:16.651Z,97.0
2022-10-18T12:26:17.114Z,97.1
2022-10-18T12:27:16.586Z,96.9
2022-10-18T12:28:17.023Z,96.8
2022-10-18T12:29:16.454Z,96.6
2022-10-18T12:30:16.894Z,96.8
2022-10-18T12:31:17.318Z,97.1
2022-10-18T12:32:16.938Z,96.8
2022-10-18T12:33:28.760Z,97.0
2022-10-18T12:34:16.502Z,96.6
2022-10-18T12:35:16.962Z,96.7
2022-10-18T12:36:17.425Z,96.6
2022-10-18T12:37:16.906Z,96.5
2022-10-18T12:38:17.367Z,96.6
2022-10-18T12:39:24.835Z,96.3
2022-10-18T12:40:21.544Z,96.1
2022-10-18T12:41:17.135Z,96.5
2022-10-18T12:42:17.198Z,96.2
2022-10-18T12:43:16.668Z,96.4
2022-10-18T12:44:17.098Z,96.1
2022-10-18T12:45:16.533Z,96.2
2022-10-18T12:46:16.953Z,96.0
2022-10-18T12:47:17.399Z,96.2
2022-10-18T12:48:16.851Z,96.7
2022-10-18T12:49:17.310Z,96.3
2022-10-18T12:50:16.802Z,96.3
2022-10-18T12:51:17.254Z,96.5
2022-10-18T12:52:16.897Z,96.3
2022-10-18T12:53:17.396Z,96.5
2022-10-18T12:54:16.917Z,96.8
2022-10-18T12:55:17.974Z,96.6
2022-10-18T12:56:20.854Z,96.4
2022-10-18T12:57:16.622Z,96.6
2022-10-18T12:58:17.056Z,96.4
2022-10-18T12:59:16.499Z,96.3
2022-10-18T13:00:16.942Z,96.5
2022-10-18T13:01:17.484Z,96.7
2022-10-18T13:02:17.597Z,96.8
2022-10-18T13:03:17.026Z,97.0
2022-10-18T13:04:16.519Z,97.3
2022-10-18T13:05:35.021Z,97.0
2022-10-18T13:06:16.543Z,97.6
2022-10-18T13:07:17.005Z,97.6
2022-10-18T13:08:16.462Z,97.7